createdAt,value
2017-08-31T00:00:27.431Z,0
2017-08-31T00:01:07.973Z,0
2017-08-31T00:01:48.538Z,0
2017-08-31T00:02:29.079Z,0
2017-08-31T00:03:09.618Z,0
2017-08-31T00:03:50.154Z,0
2017-08-31T00:04:30.682Z,0
2017-08-31T00:05:11.207Z,0
2017-08-31T00:05:51.741Z,0
2017-08-31T00:06:32.286Z,0
2017-08-31T00:07:12.843Z,0
2017-08-31T00:07:53.394Z,0
2017-08-31T00:08:33.933Z,0
2017-08-31T00:09:14.472Z,0
2017-08-31T00:09:55.020Z,0
2017-08-31T00:10:35.557Z,0
2017-08-31T00:11:16.098Z,0
2017-08-31T00:11:56.643Z,0
2017-08-31T00:12:37.188Z,0
2017-08-31T00:13:17.718Z,0
2017-08-31T00:13:58.255Z,0
2017-08-31T00:14:38.790Z,0
2017-08-31T00:15:19.328Z,0
2017-08-31T00:15:59.888Z,0
2017-08-31T00:16:40.419Z,0
2017-08-31T00:17:20.967Z,0
2017-08-31T00:18:01.514Z,0
2017-08-31T00:18:42.055Z,0
2017-08-31T00:19:22.598Z,0
2017-08-31T00:20:03.129Z,0
2017-08-31T00:20:43.664Z,0
2017-08-31T00:21:24.209Z,0
2017-08-31T00:22:04.747Z,0
2017-08-31T00:22:45.285Z,0
2017-08-31T00:23:25.827Z,0
2017-08-31T00:24:06.363Z,0
2017-08-31T00:24:46.900Z,0
2017-08-31T00:25:27.440Z,0
2017-08-31T00:26:07.986Z,0
2017-08-31T00:26:48.575Z,0
2017-08-31T00:27:29.129Z,0
2017-08-31T00:28:09.668Z,0
2017-08-31T00:28:50.205Z,0
2017-08-31T00:29:30.734Z,0
2017-08-31T00:30:11.279Z,0
2017-08-31T00:30:51.813Z,0
2017-08-31T00:31:32.355Z,0
2017-08-31T00:32:12.887Z,0
2017-08-31T00:32:53.409Z,0
2017-08-31T00:33:33.951Z,0
2017-08-31T00:34:14.474Z,0
2017-08-31T00:34:55.017Z,0
2017-08-31T00:35:35.560Z,0
2017-08-31T00:36:16.097Z,0
2017-08-31T00:36:56.635Z,0
2017-08-31T00:37:37.196Z,0
2017-08-31T00:38:17.751Z,0
2017-08-31T00:38:58.299Z,0
2017-08-31T00:39:38.840Z,0
2017-08-31T00:40:19.376Z,0
2017-08-31T00:40:59.921Z,0
2017-08-31T00:41:40.472Z,0
2017-08-31T00:42:21.020Z,0
2017-08-31T00:43:01.546Z,0
2017-08-31T00:43:42.089Z,0
2017-08-31T00:44:22.630Z,0
2017-08-31T00:45:03.169Z,0
2017-08-31T00:45:43.710Z,0
2017-08-31T00:46:24.262Z,0
2017-08-31T00:47:04.808Z,0
2017-08-31T00:47:45.346Z,0
2017-08-31T00:48:25.889Z,0
2017-08-31T00:49:06.430Z,0
2017-08-31T00:49:46.992Z,0
2017-08-31T00:50:27.517Z,0
2017-08-31T00:51:08.050Z,0
2017-08-31T00:51:48.589Z,0
2017-08-31T00:52:29.134Z,0
2017-08-31T00:53:09.658Z,0
2017-08-31T00:53:50.206Z,0
2017-08-31T00:54:30.753Z,0
2017-08-31T00:55:11.306Z,0
2017-08-31T00:55:51.832Z,0
2017-08-31T00:56:32.367Z,0
2017-08-31T00:57:12.901Z,0
2017-08-31T00:57:53.445Z,0
2017-08-31T00:58:33.991Z,0
2017-08-31T00:59:14.556Z,0
2017-08-31T00:59:55.098Z,0
2017-08-31T01:00:35.638Z,0
2017-08-31T01:01:16.179Z,0
2017-08-31T01:01:56.737Z,0
2017-08-31T01:02:37.279Z,0
2017-08-31T01:03:17.824Z,0
2017-08-31T01:03:58.361Z,0
2017-08-31T01:04:38.909Z,0
2017-08-31T01:05:19.469Z,0
2017-08-31T01:05:59.972Z,0
2017-08-31T01:06:40.513Z,0
2017-08-31T01:07:21.107Z,0
2017-08-31T01:08:01.648Z,0
2017-08-31T01:08:42.186Z,0
2017-08-31T01:09:22.730Z,0
2017-08-31T01:10:03.268Z,0
2017-08-31T01:10:43.808Z,0
2017-08-31T01:11:24.350Z,0
2017-08-31T01:12:04.890Z,0
2017-08-31T01:12:45.435Z,0
2017-08-31T01:13:25.989Z,0
2017-08-31T01:14:06.538Z,0
2017-08-31T01:14:47.080Z,0
2017-08-31T01:15:27.609Z,0
2017-08-31T01:16:08.155Z,0
2017-08-31T01:16:48.694Z,0
2017-08-31T01:17:29.220Z,0
2017-08-31T01:18:09.762Z,0
2017-08-31T01:18:50.301Z,0
2017-08-31T01:19:30.835Z,0
2017-08-31T01:20:11.381Z,0
2017-08-31T01:20:51.924Z,0
2017-08-31T01:21:32.482Z,0
2017-08-31T01:22:13.013Z,0
2017-08-31T01:22:53.544Z,0
2017-08-31T01:23:34.080Z,0
2017-08-31T01:24:14.620Z,0
2017-08-31T01:24:55.161Z,0
2017-08-31T01:25:35.704Z,0
2017-08-31T01:26:16.308Z,0
2017-08-31T01:26:56.845Z,0
2017-08-31T01:27:37.376Z,0
2017-08-31T01:28:17.911Z,0
2017-08-31T01:28:58.460Z,0
2017-08-31T01:29:39.019Z,0
2017-08-31T01:30:19.557Z,0
2017-08-31T01:31:00.109Z,0
2017-08-31T01:31:40.661Z,0
2017-08-31T01:32:21.217Z,0
2017-08-31T01:33:01.757Z,0
2017-08-31T01:33:42.296Z,0
2017-08-31T01:34:22.840Z,0
2017-08-31T01:35:03.401Z,0
2017-08-31T01:35:43.930Z,0
2017-08-31T01:36:24.471Z,0
2017-08-31T01:37:05.007Z,0
2017-08-31T01:37:45.542Z,0
2017-08-31T01:38:26.085Z,0
2017-08-31T01:39:06.624Z,0
2017-08-31T01:39:47.165Z,0
2017-08-31T01:40:27.704Z,0
2017-08-31T01:41:08.252Z,0
2017-08-31T01:41:48.794Z,0
2017-08-31T01:42:29.344Z,0
2017-08-31T01:43:09.890Z,0
2017-08-31T01:43:50.412Z,0
2017-08-31T01:44:30.952Z,0
2017-08-31T01:45:11.494Z,0
2017-08-31T01:45:52.036Z,0
2017-08-31T01:46:32.571Z,0
2017-08-31T01:47:13.138Z,0
2017-08-31T01:47:53.679Z,0
2017-08-31T01:48:34.225Z,0
2017-08-31T01:49:14.769Z,0
2017-08-31T01:49:55.319Z,0
2017-08-31T01:50:35.856Z,0
2017-08-31T01:51:16.396Z,0
2017-08-31T01:51:56.945Z,0
2017-08-31T01:52:37.475Z,0
2017-08-31T01:53:18.005Z,0
2017-08-31T01:53:58.549Z,0
2017-08-31T01:54:39.083Z,0
2017-08-31T01:55:19.621Z,0
2017-08-31T01:56:00.170Z,0
2017-08-31T01:56:40.709Z,0
2017-08-31T01:57:21.232Z,0
2017-08-31T01:58:01.760Z,0
2017-08-31T01:58:42.298Z,0
2017-08-31T01:59:22.840Z,0
2017-08-31T02:00:03.382Z,0
2017-08-31T02:00:43.922Z,0
2017-08-31T02:01:24.459Z,0
2017-08-31T02:02:04.994Z,0
2017-08-31T02:02:45.526Z,0
2017-08-31T02:03:26.065Z,0
2017-08-31T02:04:06.604Z,0
2017-08-31T02:04:47.149Z,0
2017-08-31T02:05:27.693Z,0
2017-08-31T02:06:08.231Z,0
2017-08-31T02:06:48.775Z,0
2017-08-31T02:07:29.297Z,0
2017-08-31T02:08:09.838Z,0
2017-08-31T02:08:50.369Z,0
2017-08-31T02:09:30.907Z,0
2017-08-31T02:10:11.436Z,0
2017-08-31T02:10:51.975Z,0
2017-08-31T02:11:32.512Z,0
2017-08-31T02:12:13.052Z,0
2017-08-31T02:12:53.586Z,0
2017-08-31T02:13:34.124Z,0
2017-08-31T02:14:14.646Z,0
2017-08-31T02:14:55.213Z,0
2017-08-31T02:15:35.765Z,0
2017-08-31T02:16:16.289Z,0
2017-08-31T02:16:56.836Z,0
2017-08-31T02:17:37.377Z,0
2017-08-31T02:18:17.912Z,0
2017-08-31T02:18:58.446Z,0
2017-08-31T02:19:38.985Z,0
2017-08-31T02:20:19.531Z,0
2017-08-31T02:21:00.048Z,0
2017-08-31T02:21:40.575Z,0
2017-08-31T02:22:21.104Z,0
2017-08-31T02:23:01.641Z,0
2017-08-31T02:23:42.182Z,0
2017-08-31T02:24:22.725Z,0
2017-08-31T02:25:03.252Z,0
2017-08-31T02:25:43.799Z,0
2017-08-31T02:26:24.346Z,0
2017-08-31T02:27:04.877Z,0
2017-08-31T02:27:45.412Z,0
2017-08-31T02:28:25.943Z,0
2017-08-31T02:29:13.038Z,0
2017-08-31T02:29:53.574Z,0
2017-08-31T02:30:34.116Z,0
2017-08-31T02:31:14.673Z,0
2017-08-31T02:31:55.217Z,0
2017-08-31T02:32:35.757Z,0
2017-08-31T02:33:16.354Z,0
2017-08-31T02:33:56.895Z,0
2017-08-31T02:34:37.435Z,0
2017-08-31T02:35:17.976Z,0
2017-08-31T02:35:58.526Z,0
2017-08-31T02:36:39.062Z,0
2017-08-31T02:37:19.608Z,0
2017-08-31T02:38:00.162Z,0
2017-08-31T02:38:40.690Z,0
2017-08-31T02:39:21.214Z,0
2017-08-31T02:40:01.754Z,0
2017-08-31T02:40:42.299Z,0
2017-08-31T02:41:22.838Z,0
2017-08-31T02:42:03.384Z,0
2017-08-31T02:42:43.929Z,0
2017-08-31T02:43:24.476Z,0
2017-08-31T02:44:05.040Z,0
2017-08-31T02:44:45.579Z,0
2017-08-31T02:45:26.122Z,0
2017-08-31T02:46:06.671Z,0
2017-08-31T02:46:47.206Z,0
2017-08-31T02:47:27.735Z,0
2017-08-31T02:48:08.266Z,0
2017-08-31T02:48:48.832Z,0
2017-08-31T02:49:29.369Z,0
2017-08-31T02:50:09.908Z,0
2017-08-31T02:50:50.448Z,0
2017-08-31T02:51:30.990Z,0
2017-08-31T02:52:11.528Z,0
2017-08-31T02:52:52.078Z,0
2017-08-31T02:53:32.618Z,0
2017-08-31T02:54:13.173Z,0
2017-08-31T02:54:53.713Z,0
2017-08-31T02:55:34.252Z,0
2017-08-31T02:56:14.776Z,0
2017-08-31T02:56:55.328Z,0
2017-08-31T02:57:35.868Z,0
2017-08-31T02:58:16.405Z,0
2017-08-31T02:58:56.938Z,0
2017-08-31T02:59:37.479Z,0
2017-08-31T03:00:18.035Z,0
2017-08-31T03:00:58.583Z,0
2017-08-31T03:01:39.118Z,0
2017-08-31T03:02:19.650Z,0
2017-08-31T03:03:00.187Z,0
2017-08-31T03:03:40.726Z,0
2017-08-31T03:04:21.269Z,0
2017-08-31T03:05:01.811Z,0
2017-08-31T03:05:42.356Z,0
2017-08-31T03:06:22.893Z,0
2017-08-31T03:07:03.437Z,0
2017-08-31T03:07:43.974Z,0
2017-08-31T03:08:24.505Z,0
2017-08-31T03:09:05.043Z,0
2017-08-31T03:09:45.585Z,0
2017-08-31T03:10:26.124Z,0
2017-08-31T03:11:06.668Z,0
2017-08-31T03:11:47.215Z,0
2017-08-31T03:12:27.763Z,0
2017-08-31T03:13:08.301Z,0
2017-08-31T03:13:48.829Z,0
2017-08-31T03:14:29.361Z,0
2017-08-31T03:15:09.899Z,0
2017-08-31T03:15:50.437Z,0
2017-08-31T03:16:30.979Z,0
2017-08-31T03:17:11.517Z,0
2017-08-31T03:17:52.062Z,0
2017-08-31T03:18:32.617Z,0
2017-08-31T03:19:13.156Z,0
2017-08-31T03:19:53.699Z,0
2017-08-31T03:20:34.249Z,0
2017-08-31T03:21:14.766Z,0
2017-08-31T03:21:55.305Z,0
2017-08-31T03:22:35.845Z,0
2017-08-31T03:23:16.363Z,0
2017-08-31T03:23:56.892Z,0
2017-08-31T03:24:37.460Z,0
2017-08-31T03:25:18.009Z,0
2017-08-31T03:25:58.527Z,0
2017-08-31T03:26:39.060Z,0
2017-08-31T03:27:20.138Z,0
2017-08-31T03:28:00.768Z,0
2017-08-31T03:28:41.317Z,0
2017-08-31T03:29:21.856Z,0
2017-08-31T03:30:02.390Z,0
2017-08-31T03:30:42.961Z,0
2017-08-31T03:31:23.495Z,0
2017-08-31T03:32:04.700Z,0
2017-08-31T03:32:45.265Z,0
2017-08-31T03:33:25.883Z,0
2017-08-31T03:34:06.492Z,0
2017-08-31T03:34:47.034Z,0
2017-08-31T03:35:27.568Z,0
2017-08-31T03:36:08.107Z,0
2017-08-31T03:36:48.636Z,0
2017-08-31T03:37:29.464Z,0
2017-08-31T03:38:10.007Z,0
2017-08-31T03:38:50.620Z,0
2017-08-31T03:39:31.370Z,0
2017-08-31T03:40:11.932Z,0
2017-08-31T03:40:52.464Z,0
2017-08-31T03:41:33.013Z,0
2017-08-31T03:42:13.555Z,0
2017-08-31T03:42:54.095Z,0
2017-08-31T03:43:34.641Z,0
2017-08-31T03:44:15.172Z,0
2017-08-31T03:44:55.707Z,0
2017-08-31T03:45:36.238Z,0
2017-08-31T03:46:16.777Z,0
2017-08-31T03:46:57.316Z,0
2017-08-31T03:47:37.857Z,0
2017-08-31T03:48:18.395Z,0
2017-08-31T03:48:58.944Z,0
2017-08-31T03:49:39.486Z,0
2017-08-31T03:50:20.023Z,0
2017-08-31T03:51:00.562Z,0
2017-08-31T03:51:43.069Z,0
2017-08-31T03:52:23.609Z,0
2017-08-31T03:53:04.146Z,0
2017-08-31T03:53:44.689Z,0
2017-08-31T03:54:25.225Z,0
2017-08-31T03:55:05.759Z,0
2017-08-31T03:55:46.300Z,0
2017-08-31T03:56:26.843Z,0
2017-08-31T03:57:07.387Z,0
2017-08-31T03:57:47.930Z,0
2017-08-31T03:58:28.476Z,0
2017-08-31T03:59:09.008Z,0
2017-08-31T03:59:49.547Z,0
2017-08-31T04:00:30.083Z,0
2017-08-31T04:01:10.620Z,0
2017-08-31T04:01:51.162Z,0
2017-08-31T04:02:31.697Z,0
2017-08-31T04:03:12.240Z,0
2017-08-31T04:03:52.788Z,0
2017-08-31T04:04:33.325Z,0
2017-08-31T04:05:13.862Z,0
2017-08-31T04:05:54.403Z,0
2017-08-31T04:06:34.946Z,0
2017-08-31T04:07:15.492Z,0
2017-08-31T04:07:56.031Z,0
2017-08-31T04:08:36.574Z,0
2017-08-31T04:09:17.105Z,0
2017-08-31T04:09:57.643Z,0
2017-08-31T04:10:38.188Z,0
2017-08-31T04:11:18.748Z,0
2017-08-31T04:11:59.281Z,0
2017-08-31T04:12:39.810Z,0
2017-08-31T04:13:20.337Z,0
2017-08-31T04:14:00.875Z,0
2017-08-31T04:14:41.409Z,0
2017-08-31T04:15:21.955Z,0
2017-08-31T04:16:02.493Z,0
2017-08-31T04:18:22.323Z,0
2017-08-31T04:19:04.421Z,0
2017-08-31T04:19:45.039Z,0
2017-08-31T04:20:25.681Z,0
2017-08-31T04:21:06.026Z,0
2017-08-31T04:21:46.646Z,0
2017-08-31T04:22:27.084Z,0
2017-08-31T04:23:07.631Z,0
2017-08-31T04:23:48.155Z,0
2017-08-31T04:24:28.693Z,0
2017-08-31T04:25:09.226Z,0
2017-08-31T04:25:49.765Z,0
2017-08-31T04:26:30.306Z,0
2017-08-31T04:27:10.839Z,0
2017-08-31T04:27:51.376Z,0
2017-08-31T04:28:31.908Z,0
2017-08-31T04:29:12.435Z,0
2017-08-31T04:29:52.992Z,0
2017-08-31T04:30:33.529Z,0
2017-08-31T04:31:14.046Z,0
2017-08-31T04:31:54.622Z,0
2017-08-31T04:32:35.371Z,0
2017-08-31T04:33:15.853Z,0
2017-08-31T04:33:56.389Z,0
2017-08-31T04:34:36.939Z,0
2017-08-31T04:35:17.484Z,0
2017-08-31T04:35:58.025Z,0
2017-08-31T04:36:38.591Z,0
2017-08-31T04:37:19.102Z,0
2017-08-31T04:37:59.640Z,0
2017-08-31T04:38:40.178Z,0
2017-08-31T04:39:20.710Z,0
2017-08-31T04:40:01.245Z,0
2017-08-31T04:40:41.773Z,0
2017-08-31T04:41:22.323Z,0
2017-08-31T04:42:02.848Z,0
2017-08-31T04:42:43.383Z,0
2017-08-31T04:43:23.904Z,0
2017-08-31T04:44:04.454Z,0
2017-08-31T04:44:45.002Z,0
2017-08-31T04:45:25.550Z,0
2017-08-31T04:46:06.065Z,0
2017-08-31T04:46:46.598Z,0
2017-08-31T04:47:27.137Z,0
2017-08-31T04:48:07.661Z,0
2017-08-31T04:48:48.184Z,0
2017-08-31T04:49:28.707Z,0
2017-08-31T04:50:09.244Z,0
2017-08-31T04:50:49.761Z,0
2017-08-31T04:51:30.307Z,0
2017-08-31T04:52:10.854Z,0
2017-08-31T04:52:53.059Z,0
2017-08-31T04:53:33.593Z,0
2017-08-31T04:54:14.123Z,0
2017-08-31T04:54:54.643Z,0
2017-08-31T04:55:35.163Z,0
2017-08-31T04:56:15.699Z,0
2017-08-31T04:56:56.234Z,0
2017-08-31T04:57:36.794Z,0
2017-08-31T04:58:17.348Z,0
2017-08-31T04:58:57.859Z,0
2017-08-31T04:59:38.395Z,0
2017-08-31T05:00:18.934Z,0
2017-08-31T05:00:59.475Z,0
2017-08-31T05:01:40.047Z,0
2017-08-31T05:02:20.598Z,0
2017-08-31T05:03:01.127Z,0
2017-08-31T05:03:41.659Z,0
2017-08-31T05:04:22.207Z,0
2017-08-31T05:05:02.743Z,0
2017-08-31T05:05:43.303Z,0
2017-08-31T05:06:23.851Z,0
2017-08-31T05:07:04.386Z,0
2017-08-31T05:07:44.950Z,0
2017-08-31T05:08:25.486Z,0
2017-08-31T05:09:06.015Z,0
2017-08-31T05:09:46.551Z,0
2017-08-31T05:10:27.081Z,0
2017-08-31T05:11:07.630Z,0
2017-08-31T05:11:48.192Z,0
2017-08-31T05:12:28.732Z,0
2017-08-31T05:13:09.269Z,0
2017-08-31T05:13:49.809Z,0
2017-08-31T05:14:30.356Z,0
2017-08-31T05:15:10.910Z,0
2017-08-31T05:15:51.463Z,0
2017-08-31T05:16:31.977Z,0
2017-08-31T05:17:12.509Z,0
2017-08-31T05:17:53.048Z,5
2017-08-31T05:18:33.587Z,5
2017-08-31T05:19:14.126Z,5
2017-08-31T05:19:54.654Z,5
2017-08-31T05:20:35.193Z,5
2017-08-31T05:21:15.721Z,0
2017-08-31T05:21:56.254Z,0
2017-08-31T05:22:36.793Z,0
2017-08-31T05:23:17.334Z,5
2017-08-31T05:23:57.871Z,5
2017-08-31T05:24:38.418Z,5
2017-08-31T05:25:18.942Z,5
2017-08-31T05:25:59.467Z,5
2017-08-31T05:26:40.006Z,5
2017-08-31T05:27:20.532Z,5
2017-08-31T05:28:01.083Z,5
2017-08-31T05:28:41.622Z,5
2017-08-31T05:29:22.194Z,5
2017-08-31T05:30:02.729Z,5
2017-08-31T05:30:43.276Z,5
2017-08-31T05:31:23.783Z,5
2017-08-31T05:32:04.318Z,5
2017-08-31T05:32:44.857Z,10
2017-08-31T05:33:25.385Z,10
2017-08-31T05:34:05.922Z,10
2017-08-31T05:34:46.481Z,10
2017-08-31T05:35:27.029Z,10
2017-08-31T05:36:07.555Z,10
2017-08-31T05:36:48.138Z,10
2017-08-31T05:37:28.683Z,10
2017-08-31T05:38:09.218Z,10
2017-08-31T05:38:49.773Z,10
2017-08-31T05:39:30.330Z,10
2017-08-31T05:40:10.851Z,10
2017-08-31T05:40:51.381Z,10
2017-08-31T05:41:31.924Z,5
2017-08-31T05:42:12.462Z,5
2017-08-31T05:42:53.010Z,5
2017-08-31T05:43:33.548Z,5
2017-08-31T05:44:14.087Z,5
2017-08-31T05:44:54.603Z,5
2017-08-31T05:45:35.129Z,10
2017-08-31T05:46:15.653Z,10
2017-08-31T05:46:56.203Z,10
2017-08-31T05:47:36.751Z,5
2017-08-31T05:48:17.290Z,5
2017-08-31T05:48:57.798Z,5
2017-08-31T05:49:38.326Z,5
2017-08-31T05:50:18.852Z,5
2017-08-31T05:50:59.399Z,5
2017-08-31T05:51:39.944Z,5
2017-08-31T05:52:20.479Z,10
2017-08-31T05:53:01.044Z,10
2017-08-31T05:53:41.557Z,10
2017-08-31T05:54:22.090Z,10
2017-08-31T05:55:02.627Z,10
2017-08-31T05:55:43.164Z,15
2017-08-31T05:56:23.712Z,15
2017-08-31T05:57:04.265Z,15
2017-08-31T05:57:44.809Z,20
2017-08-31T05:58:25.355Z,20
2017-08-31T05:59:05.893Z,20
2017-08-31T05:59:46.445Z,20
2017-08-31T06:00:26.959Z,20
2017-08-31T06:01:07.494Z,20
2017-08-31T06:01:48.035Z,15
2017-08-31T06:02:28.570Z,15
2017-08-31T06:03:09.102Z,15
2017-08-31T06:03:49.657Z,15
2017-08-31T06:04:30.161Z,15
2017-08-31T06:05:10.697Z,15
2017-08-31T06:05:51.239Z,25
2017-08-31T06:06:31.765Z,25
2017-08-31T06:07:12.296Z,20
2017-08-31T06:07:52.816Z,15
2017-08-31T06:08:33.372Z,15
2017-08-31T06:09:13.908Z,15
2017-08-31T06:09:54.463Z,15
2017-08-31T06:10:35.014Z,15
2017-08-31T06:11:15.534Z,15
2017-08-31T06:11:56.071Z,15
2017-08-31T06:12:36.606Z,15
2017-08-31T06:13:17.124Z,15
2017-08-31T06:13:57.657Z,15
2017-08-31T06:14:38.187Z,15
2017-08-31T06:15:18.721Z,15
2017-08-31T06:15:59.271Z,10
2017-08-31T06:16:39.800Z,15
2017-08-31T06:17:20.376Z,20
2017-08-31T06:18:00.911Z,20
2017-08-31T06:18:41.442Z,20
2017-08-31T06:19:21.974Z,20
2017-08-31T06:20:02.510Z,20
2017-08-31T06:20:43.049Z,20
2017-08-31T06:21:23.588Z,15
2017-08-31T06:22:04.117Z,15
2017-08-31T06:22:44.665Z,15
2017-08-31T06:23:25.205Z,15
2017-08-31T06:24:05.722Z,15
2017-08-31T06:24:46.263Z,15
2017-08-31T06:25:26.786Z,20
2017-08-31T06:26:07.312Z,15
2017-08-31T06:26:47.863Z,15
2017-08-31T06:27:28.380Z,25
2017-08-31T06:28:08.919Z,30
2017-08-31T06:28:49.478Z,25
2017-08-31T06:29:30.005Z,25
2017-08-31T06:30:10.551Z,40
2017-08-31T06:30:51.062Z,50
2017-08-31T06:31:31.601Z,40
2017-08-31T06:32:12.131Z,40
2017-08-31T06:32:52.669Z,40
2017-08-31T06:33:33.208Z,30
2017-08-31T06:34:13.742Z,30
2017-08-31T06:34:54.288Z,35
2017-08-31T06:35:34.822Z,30
2017-08-31T06:36:15.353Z,25
2017-08-31T06:36:55.883Z,35
2017-08-31T06:37:36.422Z,30
2017-08-31T06:38:16.959Z,35
2017-08-31T06:38:57.502Z,40
2017-08-31T06:39:38.040Z,50
2017-08-31T06:40:18.580Z,45
2017-08-31T06:40:59.134Z,40
2017-08-31T06:41:39.680Z,35
2017-08-31T06:42:20.204Z,35
2017-08-31T06:43:00.746Z,30
2017-08-31T06:43:41.277Z,30
2017-08-31T06:44:21.829Z,40
2017-08-31T06:45:02.365Z,40
2017-08-31T06:45:42.908Z,45
2017-08-31T06:46:23.457Z,45
2017-08-31T06:47:03.994Z,40
2017-08-31T06:47:44.528Z,40
2017-08-31T06:48:25.068Z,35
2017-08-31T06:49:05.606Z,35
2017-08-31T06:49:46.144Z,35
2017-08-31T06:50:26.700Z,30
2017-08-31T06:51:07.237Z,25
2017-08-31T06:51:47.778Z,25
2017-08-31T06:52:28.315Z,30
2017-08-31T06:53:08.854Z,25
2017-08-31T06:53:49.402Z,25
2017-08-31T06:54:29.913Z,20
2017-08-31T06:55:10.442Z,25
2017-08-31T06:55:50.981Z,30
2017-08-31T06:56:31.520Z,20
2017-08-31T06:57:12.057Z,20
2017-08-31T06:57:52.600Z,20
2017-08-31T06:58:33.138Z,20
2017-08-31T06:59:13.700Z,25
2017-08-31T06:59:54.261Z,25
2017-08-31T07:00:34.789Z,25
2017-08-31T07:01:15.331Z,25
2017-08-31T07:01:55.858Z,25
2017-08-31T07:02:36.422Z,20
2017-08-31T07:03:16.954Z,30
2017-08-31T07:03:57.499Z,25
2017-08-31T07:04:38.041Z,25
2017-08-31T07:05:18.570Z,30
2017-08-31T07:05:59.108Z,40
2017-08-31T07:06:39.648Z,35
2017-08-31T07:07:20.173Z,30
2017-08-31T07:08:00.708Z,35
2017-08-31T07:08:41.263Z,35
2017-08-31T07:09:21.818Z,40
2017-08-31T07:10:02.354Z,40
2017-08-31T07:10:42.882Z,40
2017-08-31T07:11:23.436Z,45
2017-08-31T07:12:03.981Z,45
2017-08-31T07:12:44.517Z,55
2017-08-31T07:13:25.074Z,50
2017-08-31T07:14:05.613Z,55
2017-08-31T07:14:46.153Z,55
2017-08-31T07:15:26.717Z,60
2017-08-31T07:16:07.236Z,75
2017-08-31T07:16:47.772Z,95
2017-08-31T07:17:28.312Z,90
2017-08-31T07:18:08.854Z,95
2017-08-31T07:18:49.392Z,95
2017-08-31T07:19:29.930Z,80
2017-08-31T07:20:10.464Z,70
2017-08-31T07:20:51.011Z,65
2017-08-31T07:21:31.548Z,70
2017-08-31T07:22:12.121Z,75
2017-08-31T07:22:52.680Z,60
2017-08-31T07:23:33.202Z,55
2017-08-31T07:24:13.729Z,75
2017-08-31T07:24:54.266Z,70
2017-08-31T07:25:34.902Z,70
2017-08-31T07:26:15.441Z,70
2017-08-31T07:26:55.983Z,60
2017-08-31T07:27:36.520Z,55
2017-08-31T07:28:17.087Z,60
2017-08-31T07:28:57.600Z,80
2017-08-31T07:29:38.133Z,70
2017-08-31T07:30:18.670Z,55
2017-08-31T07:30:59.206Z,50
2017-08-31T07:31:39.743Z,55
2017-08-31T07:32:20.273Z,50
2017-08-31T07:33:00.810Z,60
2017-08-31T07:33:41.353Z,65
2017-08-31T07:34:21.886Z,60
2017-08-31T07:35:02.421Z,55
2017-08-31T07:35:42.960Z,55
2017-08-31T07:36:23.513Z,45
2017-08-31T07:37:04.063Z,70
2017-08-31T07:37:44.601Z,85
2017-08-31T07:38:25.141Z,90
2017-08-31T07:39:05.657Z,90
2017-08-31T07:39:46.190Z,95
2017-08-31T07:40:26.730Z,80
2017-08-31T07:41:07.273Z,80
2017-08-31T07:41:47.819Z,75
2017-08-31T07:42:28.356Z,65
2017-08-31T07:43:08.896Z,65
2017-08-31T07:43:49.434Z,75
2017-08-31T07:44:30.018Z,100
2017-08-31T07:45:10.558Z,115
2017-08-31T07:45:51.133Z,110
2017-08-31T07:46:31.664Z,110
2017-08-31T07:47:12.212Z,115
2017-08-31T07:47:52.741Z,130
2017-08-31T07:48:33.277Z,125
2017-08-31T07:49:13.804Z,110
2017-08-31T07:49:54.340Z,105
2017-08-31T07:50:34.869Z,130
2017-08-31T07:51:15.409Z,125
2017-08-31T07:51:55.943Z,120
2017-08-31T07:52:36.481Z,105
2017-08-31T07:53:17.027Z,130
2017-08-31T07:53:57.559Z,150
2017-08-31T07:54:38.114Z,155
2017-08-31T07:55:18.654Z,170
2017-08-31T07:55:59.192Z,135
2017-08-31T07:56:39.733Z,125
2017-08-31T07:57:20.269Z,120
2017-08-31T07:58:00.817Z,145
2017-08-31T07:58:41.338Z,155
2017-08-31T07:59:21.873Z,140
2017-08-31T08:00:02.409Z,160
2017-08-31T08:00:42.932Z,170
2017-08-31T08:01:23.479Z,150
2017-08-31T08:02:04.023Z,155
2017-08-31T08:02:44.568Z,155
2017-08-31T08:03:25.105Z,155
2017-08-31T08:04:05.637Z,150
2017-08-31T08:04:46.173Z,160
2017-08-31T08:05:26.702Z,165
2017-08-31T08:06:07.231Z,175
2017-08-31T08:06:47.776Z,170
2017-08-31T08:07:28.311Z,170
2017-08-31T08:08:08.866Z,170
2017-08-31T08:08:49.409Z,165
2017-08-31T08:09:29.939Z,150
2017-08-31T08:10:10.479Z,155
2017-08-31T08:10:51.016Z,145
2017-08-31T08:11:31.553Z,145
2017-08-31T08:12:12.097Z,140
2017-08-31T08:12:52.663Z,120
2017-08-31T08:13:33.190Z,130
2017-08-31T08:14:13.731Z,115
2017-08-31T08:14:54.273Z,100
2017-08-31T08:15:34.796Z,100
2017-08-31T08:16:15.333Z,130
2017-08-31T08:16:55.872Z,125
2017-08-31T08:17:36.409Z,135
2017-08-31T08:18:16.952Z,150
2017-08-31T08:18:57.511Z,155
2017-08-31T08:19:38.045Z,125
2017-08-31T08:20:18.581Z,135
2017-08-31T08:20:59.122Z,150
2017-08-31T08:21:39.673Z,155
2017-08-31T08:22:20.186Z,170
2017-08-31T08:23:00.722Z,175
2017-08-31T08:23:41.251Z,170
2017-08-31T08:24:21.795Z,175
2017-08-31T08:25:02.324Z,200
2017-08-31T08:25:42.852Z,195
2017-08-31T08:26:23.390Z,170
2017-08-31T08:27:03.954Z,170
2017-08-31T08:27:44.490Z,185
2017-08-31T08:28:25.016Z,175
2017-08-31T08:29:05.562Z,200
2017-08-31T08:29:46.103Z,200
2017-08-31T08:30:26.640Z,210
2017-08-31T08:31:07.178Z,215
2017-08-31T08:31:47.714Z,170
2017-08-31T08:32:28.262Z,160
2017-08-31T08:33:08.797Z,145
2017-08-31T08:33:49.340Z,145
2017-08-31T08:34:29.880Z,160
2017-08-31T08:35:10.416Z,160
2017-08-31T08:35:50.949Z,180
2017-08-31T08:36:31.498Z,200
2017-08-31T08:37:12.040Z,210
2017-08-31T08:37:52.571Z,205
2017-08-31T08:38:33.114Z,170
2017-08-31T08:39:13.646Z,210
2017-08-31T08:39:54.184Z,215
2017-08-31T08:40:34.727Z,185
2017-08-31T08:41:15.268Z,185
2017-08-31T08:41:55.790Z,215
2017-08-31T08:42:36.323Z,215
2017-08-31T08:43:16.859Z,165
2017-08-31T08:43:57.397Z,185
2017-08-31T08:44:37.923Z,200
2017-08-31T08:45:18.464Z,185
2017-08-31T08:45:59.005Z,165
2017-08-31T08:46:39.556Z,165
2017-08-31T08:47:20.082Z,135
2017-08-31T08:48:00.611Z,165
2017-08-31T08:48:41.155Z,200
2017-08-31T08:49:21.696Z,185
2017-08-31T08:50:02.232Z,185
2017-08-31T08:50:42.770Z,170
2017-08-31T08:51:23.312Z,150
2017-08-31T08:52:03.867Z,170
2017-08-31T08:52:44.384Z,165
2017-08-31T08:53:24.920Z,200
2017-08-31T08:54:05.462Z,230
2017-08-31T08:54:46.001Z,250
2017-08-31T08:55:26.549Z,250
2017-08-31T08:56:07.085Z,235
2017-08-31T08:56:47.626Z,245
2017-08-31T08:57:28.153Z,230
2017-08-31T08:58:08.714Z,190
2017-08-31T08:58:49.238Z,195
2017-08-31T08:59:29.772Z,195
2017-08-31T09:00:10.336Z,200
2017-08-31T09:00:50.878Z,195
2017-08-31T09:01:31.415Z,175
2017-08-31T09:02:11.952Z,170
2017-08-31T09:02:52.493Z,150
2017-08-31T09:03:33.030Z,140
2017-08-31T09:04:13.563Z,135
2017-08-31T09:04:54.101Z,125
2017-08-31T09:05:34.645Z,115
2017-08-31T09:06:15.183Z,115
2017-08-31T09:06:55.720Z,140
2017-08-31T09:07:36.254Z,155
2017-08-31T09:08:16.813Z,160
2017-08-31T09:08:57.351Z,175
2017-08-31T09:09:37.887Z,200
2017-08-31T09:10:18.428Z,235
2017-08-31T09:10:58.966Z,235
2017-08-31T09:11:39.500Z,210
2017-08-31T09:12:20.035Z,205
2017-08-31T09:13:00.583Z,190
2017-08-31T09:13:41.178Z,205
2017-08-31T09:14:21.725Z,195
2017-08-31T09:15:02.245Z,195
2017-08-31T09:15:42.786Z,200
2017-08-31T09:16:23.359Z,205
2017-08-31T09:17:03.894Z,210
2017-08-31T09:17:44.431Z,195
2017-08-31T09:18:24.967Z,150
2017-08-31T09:19:05.502Z,110
2017-08-31T09:19:46.048Z,85
2017-08-31T09:20:26.591Z,65
2017-08-31T09:21:07.127Z,75
2017-08-31T09:21:47.664Z,125
2017-08-31T09:22:28.197Z,135
2017-08-31T09:23:08.737Z,115
2017-08-31T09:23:49.276Z,115
2017-08-31T09:24:29.838Z,85
2017-08-31T09:25:10.355Z,75
2017-08-31T09:25:50.895Z,75
2017-08-31T09:26:31.437Z,80
2017-08-31T09:27:11.963Z,95
2017-08-31T09:27:52.500Z,140
2017-08-31T09:28:33.053Z,120
2017-08-31T09:29:13.579Z,130
2017-08-31T09:29:54.113Z,130
2017-08-31T09:30:34.658Z,115
2017-08-31T09:31:15.197Z,110
2017-08-31T09:31:55.747Z,120
2017-08-31T09:32:36.289Z,110
2017-08-31T09:33:16.838Z,95
2017-08-31T09:33:57.399Z,100
2017-08-31T09:34:37.933Z,115
2017-08-31T09:35:18.473Z,145
2017-08-31T09:35:59.070Z,195
2017-08-31T09:36:39.607Z,245
2017-08-31T09:37:20.148Z,295
2017-08-31T09:38:00.695Z,315
2017-08-31T09:38:41.226Z,315
2017-08-31T09:39:21.765Z,360
2017-08-31T09:40:02.305Z,395
2017-08-31T09:40:42.847Z,420
2017-08-31T09:41:23.376Z,455
2017-08-31T09:42:03.916Z,445
2017-08-31T09:42:44.450Z,435
2017-08-31T09:43:24.989Z,435
2017-08-31T09:44:05.545Z,410
2017-08-31T09:44:46.069Z,390
2017-08-31T09:45:26.609Z,350
2017-08-31T09:46:07.146Z,305
2017-08-31T09:46:47.688Z,295
2017-08-31T09:47:28.227Z,255
2017-08-31T09:48:08.767Z,185